createdAt,value
2022-10-11T00:00:49.278Z,12.20
2022-10-11T00:03:16.365Z,12.20
2022-10-11T00:05:44.112Z,12.10
2022-10-11T00:08:11.078Z,12.10
2022-10-11T00:10:39.598Z,12.00
2022-10-11T00:13:06.794Z,12.00
2022-10-11T00:15:33.755Z,11.90
2022-10-11T00:18:05.127Z,11.90
2022-10-11T00:20:33.769Z,11.80
2022-10-11T00:23:00.545Z,11.80
2022-10-11T00:25:27.297Z,11.70
2022-10-11T00:27:55.954Z,11.70
2022-10-11T00:30:22.722Z,11.60
2022-10-11T00:32:50.468Z,11.60
2022-10-11T00:35:17.256Z,11.60
2022-10-11T00:37:44.213Z,11.50
2022-10-11T00:40:16.646Z,11.40
2022-10-11T00:42:43.641Z,11.40
2022-10-11T00:45:29.232Z,11.50
2022-10-11T00:47:59.354Z,11.40
2022-10-11T00:50:27.780Z,11.40
2022-10-11T00:52:56.447Z,11.40
2022-10-11T00:55:25.701Z,11.30
2022-10-11T00:57:53.582Z,11.30
2022-10-11T01:00:21.268Z,11.20
2022-10-11T01:02:48.949Z,11.00
2022-10-11T01:05:29.312Z,10.90
2022-10-11T01:07:57.681Z,10.70
2022-10-11T01:10:25.091Z,10.60
2022-10-11T01:13:04.447Z,10.40
2022-10-11T01:15:34.609Z,10.30
2022-10-11T01:18:04.083Z,10.20
2022-10-11T01:20:35.576Z,10.20
2022-10-11T01:23:21.193Z,10.20
2022-10-11T01:25:53.130Z,10.30
2022-10-11T01:28:26.498Z,10.30
2022-10-11T01:31:02.973Z,10.40
2022-10-11T01:33:33.200Z,10.40
2022-10-11T01:36:04.421Z,10.50
2022-10-11T01:38:35.038Z,10.50
2022-10-11T01:41:04.253Z,10.50
2022-10-11T01:43:31.726Z,10.50
2022-10-11T01:46:00.264Z,10.50
2022-10-11T01:48:27.283Z,10.60
2022-10-11T01:50:55.481Z,10.60
2022-10-11T01:53:34.603Z,10.50
2022-10-11T01:56:09.758Z,10.50
2022-10-11T01:58:49.327Z,10.50
2022-10-11T02:01:26.987Z,10.30
2022-10-11T02:04:01.861Z,10.20
2022-10-11T02:06:32.499Z,10.10
2022-10-11T02:09:08.250Z,9.90
2022-10-11T02:11:36.423Z,10.00
2022-10-11T02:14:09.352Z,10.00
2022-10-11T02:16:40.509Z,9.90
2022-10-11T02:19:08.653Z,9.90
2022-10-11T02:21:39.585Z,9.90
2022-10-11T02:24:12.345Z,9.80
2022-10-11T02:26:41.391Z,9.70
2022-10-11T02:29:09.672Z,9.70
2022-10-11T02:31:38.301Z,9.70
2022-10-11T02:34:07.644Z,9.80
2022-10-11T02:36:37.587Z,9.80
2022-10-11T02:39:12.318Z,9.90
2022-10-11T02:41:42.973Z,10.00
2022-10-11T02:44:13.657Z,10.00
2022-10-11T02:46:43.088Z,9.90
2022-10-11T02:49:10.345Z,9.80
2022-10-11T02:51:37.179Z,9.70
2022-10-11T02:54:04.085Z,9.70
2022-10-11T02:56:30.894Z,9.70
2022-10-11T02:58:57.714Z,9.80
2022-10-11T03:01:24.638Z,9.80
2022-10-11T03:03:52.836Z,9.90
2022-10-11T03:06:19.620Z,9.90
2022-10-11T03:08:46.411Z,9.90
2022-10-11T03:11:13.328Z,9.90
2022-10-11T03:13:40.261Z,10.00
2022-10-11T03:16:07.034Z,10.00
2022-10-11T03:18:33.789Z,10.00
2022-10-11T03:21:01.932Z,10.00
2022-10-11T03:23:28.796Z,10.00
2022-10-11T03:25:55.577Z,10.00
2022-10-11T03:28:22.468Z,10.00
2022-10-11T03:30:49.607Z,9.90
2022-10-11T03:33:17.189Z,9.80
2022-10-11T03:35:44.361Z,9.70
2022-10-11T03:38:14.076Z,9.70
2022-10-11T03:40:40.993Z,9.60
2022-10-11T03:43:07.763Z,9.80
2022-10-11T03:45:34.613Z,9.80
2022-10-11T03:48:01.644Z,9.90
2022-10-11T03:50:28.612Z,9.90
2022-10-11T03:52:55.384Z,9.90
2022-10-11T03:55:23.557Z,9.90
2022-10-11T03:57:50.317Z,9.90
2022-10-11T04:00:17.345Z,9.90
2022-10-11T04:02:44.207Z,10.00
2022-10-11T04:05:12.610Z,9.90
2022-10-11T04:07:39.522Z,9.90
2022-10-11T04:10:07.076Z,10.00
2022-10-11T04:12:36.633Z,9.90
2022-10-11T04:15:03.756Z,9.80
2022-10-11T04:17:30.547Z,9.80
2022-10-11T04:19:57.303Z,9.80
2022-10-11T04:22:24.258Z,9.90
2022-10-11T04:24:51.007Z,9.90
2022-10-11T04:27:17.839Z,9.90
2022-10-11T04:29:45.962Z,9.80
2022-10-11T04:32:12.755Z,9.90
2022-10-11T04:34:39.867Z,9.80
2022-10-11T04:37:06.713Z,9.80
2022-10-11T04:39:33.520Z,9.90
2022-10-11T04:42:00.325Z,9.90
2022-10-11T04:44:27.096Z,9.80
2022-10-11T04:46:55.216Z,9.90
2022-10-11T04:49:22.176Z,9.80
2022-10-11T04:51:49.335Z,9.80
2022-10-11T04:54:16.144Z,9.80
2022-10-11T04:56:43.097Z,9.80
2022-10-11T04:59:10.533Z,9.90
2022-10-11T05:01:37.449Z,9.90
2022-10-11T05:04:05.935Z,9.90
2022-10-11T05:06:32.855Z,9.90
2022-10-11T05:09:00.600Z,9.80
2022-10-11T05:11:27.464Z,9.80
2022-10-11T05:13:56.495Z,9.80
2022-10-11T05:16:23.389Z,9.90
2022-10-11T05:18:50.171Z,9.90
2022-10-11T05:21:19.194Z,9.80
2022-10-11T05:23:47.111Z,9.80
2022-10-11T05:26:13.930Z,9.80
2022-10-11T05:28:40.818Z,9.80
2022-10-11T05:31:08.251Z,9.80
2022-10-11T05:33:35.689Z,9.80
2022-10-11T05:36:03.114Z,9.70
2022-10-11T05:38:31.823Z,9.50
2022-10-11T05:40:59.983Z,9.40
2022-10-11T05:43:26.810Z,9.30
2022-10-11T05:45:53.754Z,9.20
2022-10-11T05:48:20.565Z,9.10
2022-10-11T05:50:47.435Z,9.20
2022-10-11T05:53:14.384Z,9.30
2022-10-11T05:55:43.949Z,9.40
2022-10-11T05:58:15.152Z,9.40
2022-10-11T06:00:42.001Z,9.30
2022-10-11T06:03:10.425Z,9.30
2022-10-11T06:05:37.338Z,9.20
2022-10-11T06:08:06.108Z,9.20
2022-10-11T06:10:33.119Z,9.40
2022-10-11T06:13:01.565Z,9.50
2022-10-11T06:15:28.619Z,9.50
2022-10-11T06:17:55.665Z,9.50
2022-10-11T06:20:25.129Z,9.60
2022-10-11T06:22:52.125Z,9.70
2022-10-11T06:25:18.949Z,9.80
2022-10-11T06:27:45.730Z,9.90
2022-10-11T06:30:14.704Z,10.10
2022-10-11T06:32:41.688Z,10.40
2022-10-11T06:35:08.788Z,10.70
2022-10-11T06:37:36.051Z,11.10
2022-10-11T06:40:06.020Z,11.50
2022-10-11T06:42:32.774Z,11.70
2022-10-11T06:44:59.729Z,12.30
2022-10-11T06:47:27.894Z,12.90
2022-10-11T06:49:54.864Z,13.70
2022-10-11T06:52:21.840Z,14.60
2022-10-11T06:54:48.654Z,15.30
2022-10-11T06:57:15.569Z,15.90
2022-10-11T06:59:42.312Z,16.00
2022-10-11T07:02:09.512Z,15.70
2022-10-11T07:04:37.696Z,15.50
2022-10-11T07:07:04.563Z,15.20
2022-10-11T07:09:31.460Z,14.60
2022-10-11T07:11:58.461Z,14.40
2022-10-11T07:14:25.337Z,14.40
2022-10-11T07:16:52.197Z,14.70
2022-10-11T07:19:19.997Z,14.80
2022-10-11T07:21:48.338Z,15.00
2022-10-11T07:24:15.127Z,14.70
2022-10-11T07:26:42.250Z,15.00
2022-10-11T07:29:10.247Z,15.10
2022-10-11T07:31:37.553Z,15.40
2022-10-11T07:34:04.466Z,15.80
2022-10-11T07:36:31.243Z,16.30
2022-10-11T07:38:59.388Z,16.70
2022-10-11T07:41:26.164Z,16.60
2022-10-11T07:43:54.575Z,16.50
2022-10-11T07:46:21.370Z,16.70
2022-10-11T07:48:50.057Z,17.00
2022-10-11T07:51:18.115Z,17.30
2022-10-11T07:53:45.648Z,17.70
2022-10-11T07:56:14.777Z,18.00
2022-10-11T07:58:41.767Z,18.20
2022-10-11T08:01:08.974Z,18.40
2022-10-11T08:03:36.373Z,18.70
2022-10-11T08:06:04.739Z,18.90
2022-10-11T08:08:31.749Z,19.30
2022-10-11T08:10:58.569Z,19.50
2022-10-11T08:13:26.875Z,19.70
2022-10-11T08:15:53.720Z,20.00
2022-10-11T08:18:20.550Z,20.60
2022-10-11T08:20:47.374Z,21.00
2022-10-11T08:23:14.210Z,21.40
2022-10-11T08:25:42.524Z,21.70
2022-10-11T08:28:10.118Z,22.30
2022-10-11T08:30:38.406Z,22.80
2022-10-11T08:33:08.631Z,22.90
2022-10-11T08:35:36.151Z,23.70
2022-10-11T08:38:02.987Z,24.10
2022-10-11T08:40:35.014Z,24.50
2022-10-11T08:43:03.984Z,25.00
2022-10-11T08:45:32.537Z,25.50
2022-10-11T08:48:07.203Z,25.40
2022-10-11T08:50:34.412Z,25.90
2022-10-11T08:53:04.528Z,26.80
2022-10-11T08:55:33.604Z,27.00
2022-10-11T08:58:00.601Z,27.60
2022-10-11T09:00:30.083Z,27.60
2022-10-11T09:03:14.959Z,27.80
2022-10-11T09:05:50.545Z,28.50
2022-10-11T09:08:22.162Z,28.80
2022-10-11T09:10:57.211Z,28.10
2022-10-11T09:13:31.513Z,27.60
2022-10-11T09:16:04.231Z,27.30
2022-10-11T09:18:39.191Z,28.20
2022-10-11T09:21:19.848Z,28.90
2022-10-11T09:24:01.974Z,29.10
2022-10-11T09:26:30.501Z,29.60
2022-10-11T09:29:01.345Z,29.70
2022-10-11T09:31:28.716Z,29.60
2022-10-11T09:33:55.784Z,29.50
2022-10-11T09:36:27.438Z,29.50
2022-10-11T09:38:56.440Z,29.90
2022-10-11T09:41:26.852Z,30.30
2022-10-11T09:43:53.691Z,30.40
2022-10-11T09:46:22.507Z,30.90
2022-10-11T09:48:50.383Z,31.40
2022-10-11T09:51:19.055Z,31.40
2022-10-11T09:53:51.321Z,31.50
2022-10-11T09:56:18.552Z,29.80
2022-10-11T09:58:45.393Z,29.50
2022-10-11T10:01:13.904Z,28.90
2022-10-11T10:03:41.655Z,28.60
2022-10-11T10:06:09.587Z,28.60
2022-10-11T10:08:36.644Z,28.40
2022-10-11T10:11:05.380Z,29.70
2022-10-11T10:13:43.321Z,30.40
2022-10-11T10:16:19.556Z,30.10
2022-10-11T10:18:50.363Z,29.40
2022-10-11T10:21:23.949Z,29.80
2022-10-11T10:23:52.385Z,30.00
2022-10-11T10:26:22.134Z,30.30
2022-10-11T10:29:04.859Z,30.90
2022-10-11T10:31:49.445Z,30.70
2022-10-11T10:34:25.795Z,30.90
2022-10-11T10:36:54.073Z,31.40
2022-10-11T10:39:24.392Z,31.20
2022-10-11T10:41:52.632Z,31.00
2022-10-11T10:44:19.782Z,31.50
2022-10-11T10:46:56.827Z,32.10
2022-10-11T10:52:39.694Z,32.60
2022-10-11T10:55:11.600Z,32.90
2022-10-11T10:57:49.867Z,32.60
2022-10-11T11:00:19.617Z,32.30
2022-10-11T11:02:55.157Z,32.40
2022-10-11T11:05:33.862Z,32.20
2022-10-11T11:08:08.984Z,31.90
2022-10-11T11:10:42.183Z,32.30
2022-10-11T11:13:21.912Z,32.10
2022-10-11T11:15:55.880Z,31.30
2022-10-11T11:18:29.814Z,30.60
2022-10-11T11:21:23.235Z,30.80
2022-10-11T11:23:55.855Z,30.40
2022-10-11T11:26:25.868Z,31.00
2022-10-11T11:28:59.142Z,32.10
2022-10-11T11:31:35.431Z,32.70
2022-10-11T11:34:05.223Z,32.50
2022-10-11T11:36:37.528Z,32.70
2022-10-11T11:39:06.876Z,32.90
2022-10-11T11:41:37.401Z,32.10
2022-10-11T11:44:12.012Z,32.10
2022-10-11T11:46:44.536Z,31.90
2022-10-11T11:49:17.639Z,32.50
2022-10-11T11:51:46.220Z,32.10
2022-10-11T11:54:24.811Z,30.60
2022-10-11T11:57:00.499Z,30.50
2022-10-11T11:59:36.258Z,30.00
2022-10-11T12:02:25.091Z,30.80
2022-10-11T12:04:52.968Z,31.60
2022-10-11T12:07:21.399Z,32.30
2022-10-11T12:09:50.627Z,32.40
2022-10-11T12:12:28.990Z,32.50
2022-10-11T12:15:04.844Z,32.80
2022-10-11T12:17:31.753Z,32.00
2022-10-11T12:20:04.975Z,32.20
2022-10-11T12:22:38.993Z,33.30
2022-10-11T12:25:20.634Z,34.50
2022-10-11T12:27:48.404Z,35.20
2022-10-11T12:30:30.054Z,35.10
2022-10-11T12:33:13.443Z,35.00
2022-10-11T12:35:49.642Z,34.80
2022-10-11T12:38:18.896Z,34.30
2022-10-11T12:40:47.209Z,34.00
2022-10-11T12:43:24.947Z,33.90
2022-10-11T12:45:51.686Z,33.70
2022-10-11T12:48:34.990Z,33.10
2022-10-11T12:51:14.775Z,32.90
2022-10-11T12:54:25.018Z,32.80
2022-10-11T12:56:48.828Z,32.30
2022-10-11T12:59:16.826Z,30.60
2022-10-11T13:01:48.379Z,29.60
2022-10-11T13:04:17.434Z,28.90
2022-10-11T13:06:45.877Z,27.40
2022-10-11T13:09:20.660Z,26.80
2022-10-11T13:11:50.559Z,26.40
2022-10-11T13:14:19.260Z,26.20
2022-10-11T13:16:49.560Z,26.10
2022-10-11T13:19:21.511Z,25.50
2022-10-11T13:21:50.279Z,25.10
2022-10-11T13:24:18.769Z,25.10
2022-10-11T13:26:46.596Z,24.90
2022-10-11T13:29:15.459Z,24.80
2022-10-11T13:31:42.314Z,24.80
2022-10-11T13:34:11.051Z,24.80
2022-10-11T13:36:39.317Z,24.80
2022-10-11T13:39:06.647Z,24.80
2022-10-11T13:41:35.128Z,24.60
2022-10-11T13:44:02.788Z,24.20
2022-10-11T13:46:30.620Z,24.10
2022-10-11T13:48:58.891Z,23.90
2022-10-11T13:51:32.219Z,24.10
2022-10-11T13:54:04.407Z,24.20
2022-10-11T13:56:32.978Z,24.20
2022-10-11T13:59:00.428Z,24.10
2022-10-11T14:01:29.254Z,24.30
2022-10-11T14:03:57.235Z,24.20
2022-10-11T14:06:24.389Z,23.90
2022-10-11T14:08:53.410Z,23.80
2022-10-11T14:11:35.551Z,23.70
2022-10-11T14:14:17.211Z,23.60
2022-10-11T14:16:54.754Z,24.00
2022-10-11T14:19:22.103Z,24.40
2022-10-11T14:21:51.536Z,24.60
2022-10-11T14:24:18.786Z,24.50
2022-10-11T14:26:49.335Z,24.10
2022-10-11T14:29:19.912Z,24.40
2022-10-11T14:32:31.873Z,24.50
2022-10-11T14:34:58.850Z,24.70
2022-10-11T14:37:26.219Z,24.80
2022-10-11T14:39:53.196Z,24.90
2022-10-11T14:42:20.875Z,24.80
2022-10-11T14:44:47.910Z,24.80
2022-10-11T14:47:16.370Z,24.90
2022-10-11T14:49:44.917Z,24.80
2022-10-11T14:52:13.056Z,24.80
2022-10-11T14:56:37.209Z,24.90
2022-10-11T14:59:04.331Z,24.70
2022-10-11T15:01:31.831Z,24.00
2022-10-11T15:06:01.981Z,24.10
2022-10-11T15:08:29.158Z,24.20
2022-10-11T15:10:56.189Z,24.30
2022-10-11T15:13:23.550Z,24.20
2022-10-11T15:15:50.568Z,24.20
2022-10-11T15:18:17.676Z,24.10
2022-10-11T15:20:46.749Z,24.00
2022-10-11T15:23:15.681Z,24.10
2022-10-11T15:25:42.955Z,23.80
2022-10-11T15:28:18.907Z,23.40
2022-10-11T15:30:46.047Z,23.10
2022-10-11T15:33:14.959Z,22.90
2022-10-11T15:35:42.323Z,22.50
2022-10-11T15:38:14.073Z,22.40
2022-10-11T15:40:43.357Z,22.10
2022-10-11T15:43:10.411Z,21.90
2022-10-11T15:45:37.481Z,21.90
2022-10-11T15:48:04.421Z,21.80
2022-10-11T15:50:35.201Z,21.80
2022-10-11T15:53:02.944Z,21.70
2022-10-11T15:55:30.041Z,21.70
2022-10-11T15:57:58.920Z,21.80
2022-10-11T16:00:26.405Z,21.80
2022-10-11T16:02:54.133Z,21.70
2022-10-11T16:05:21.913Z,21.60
2022-10-11T16:07:48.957Z,21.30
2022-10-11T16:10:16.176Z,21.10
2022-10-11T16:12:43.292Z,20.80
2022-10-11T16:15:12.366Z,20.70
2022-10-11T16:17:39.574Z,20.50
2022-10-11T16:20:07.492Z,20.40
2022-10-11T16:22:34.512Z,20.20
2022-10-11T16:25:02.951Z,20.10
2022-10-11T16:27:29.995Z,20.00
2022-10-11T16:29:57.046Z,20.10
2022-10-11T16:32:26.133Z,20.00
2022-10-11T16:34:55.125Z,20.00
2022-10-11T16:37:22.316Z,19.90
2022-10-11T16:39:49.176Z,19.90
2022-10-11T16:42:16.178Z,19.80
2022-10-11T16:44:43.115Z,19.70
2022-10-11T16:47:10.036Z,19.70
2022-10-11T16:49:38.935Z,19.60
2022-10-11T16:52:06.052Z,19.50
2022-10-11T16:54:33.374Z,19.30
2022-10-11T16:57:00.408Z,19.10
2022-10-11T16:59:28.129Z,18.90
2022-10-11T17:01:56.168Z,18.60
2022-10-11T17:04:23.796Z,18.30
2022-10-11T17:06:54.212Z,18.10
2022-10-11T17:09:21.376Z,18.00
2022-10-11T17:11:48.405Z,17.80
2022-10-11T17:14:15.643Z,17.70
2022-10-11T17:16:42.788Z,17.70
2022-10-11T17:19:10.691Z,17.70
2022-10-11T17:21:37.920Z,17.60
2022-10-11T17:24:08.096Z,17.50
2022-10-11T17:26:35.166Z,17.50
2022-10-11T17:29:02.852Z,17.40
2022-10-11T17:31:30.513Z,17.40
2022-10-11T17:33:58.103Z,17.40
2022-10-11T17:36:27.760Z,17.20
2022-10-11T17:38:54.895Z,17.00
2022-10-11T17:41:25.972Z,17.00
2022-10-11T17:43:55.248Z,17.10
2022-10-11T17:46:22.588Z,17.10
2022-10-11T17:48:51.278Z,17.00
2022-10-11T17:51:18.685Z,17.00
2022-10-11T17:53:47.815Z,16.90
2022-10-11T17:56:17.531Z,17.00
2022-10-11T17:58:45.784Z,17.10
2022-10-11T18:01:13.686Z,17.10
2022-10-11T18:03:41.282Z,17.10
2022-10-11T18:06:08.789Z,17.20
2022-10-11T18:08:40.127Z,17.20
2022-10-11T18:11:09.613Z,17.20
2022-10-11T18:13:36.791Z,17.20
2022-10-11T18:16:05.970Z,17.20
2022-10-11T18:18:33.158Z,17.20
2022-10-11T18:21:00.611Z,17.20
2022-10-11T18:23:27.677Z,17.00
2022-10-11T18:25:55.153Z,16.90
2022-10-11T18:28:22.062Z,16.50
2022-10-11T18:30:49.255Z,16.20
2022-10-11T18:33:17.576Z,16.10
2022-10-11T18:35:44.605Z,15.90
2022-10-11T18:38:12.133Z,15.80
2022-10-11T18:40:44.755Z,15.70
2022-10-11T18:43:13.821Z,15.70
2022-10-11T18:45:41.152Z,15.60
2022-10-11T18:48:09.054Z,15.50
2022-10-11T18:50:37.713Z,15.50
2022-10-11T18:55:32.619Z,15.50
2022-10-11T18:57:59.611Z,15.50
2022-10-11T19:00:41.969Z,15.50
2022-10-11T19:03:09.005Z,15.20
2022-10-11T19:05:39.864Z,15.10
2022-10-11T19:08:06.872Z,14.80
2022-10-11T19:10:33.921Z,14.70
2022-10-11T19:13:01.064Z,14.50
2022-10-11T19:15:28.942Z,14.50
2022-10-11T19:17:55.966Z,14.40
2022-10-11T19:20:22.928Z,14.40
2022-10-11T19:22:51.261Z,14.50
2022-10-11T19:25:18.052Z,14.50
2022-10-11T19:27:44.941Z,14.60
2022-10-11T19:30:12.167Z,14.70
2022-10-11T19:32:38.982Z,14.70
2022-10-11T19:35:06.908Z,14.60
2022-10-11T19:37:33.993Z,14.50
2022-10-11T19:40:03.905Z,14.50
2022-10-11T19:42:30.957Z,14.60
2022-10-11T19:44:58.006Z,14.60
2022-10-11T19:47:24.878Z,14.70
2022-10-11T19:49:52.008Z,14.70
2022-10-11T19:52:18.909Z,14.60
2022-10-11T19:54:45.771Z,14.50
2022-10-11T19:57:14.268Z,14.50
2022-10-11T19:59:41.194Z,14.40
2022-10-11T20:02:09.255Z,14.30
2022-10-11T20:04:52.978Z,14.30
2022-10-11T20:07:20.605Z,14.20
2022-10-11T20:09:47.665Z,14.10
2022-10-11T20:12:15.873Z,14.10
2022-10-11T20:14:43.135Z,14.00
2022-10-11T20:17:10.217Z,14.00
2022-10-11T20:19:37.295Z,14.00
2022-10-11T20:22:04.354Z,13.90
2022-10-11T20:24:34.839Z,13.80
2022-10-11T20:27:05.136Z,13.80
2022-10-11T20:29:33.783Z,13.70
2022-10-11T20:32:00.723Z,13.70
2022-10-11T20:34:27.738Z,13.60
2022-10-11T20:36:54.625Z,13.60
2022-10-11T20:39:21.805Z,13.70
2022-10-11T20:41:48.649Z,13.70
2022-10-11T20:44:16.192Z,13.70
2022-10-11T20:46:44.605Z,13.60
2022-10-11T20:49:11.699Z,13.60
2022-10-11T20:51:39.315Z,13.50
2022-10-11T20:54:06.384Z,13.60
2022-10-11T20:56:34.294Z,13.50
2022-10-11T20:59:01.541Z,13.50
2022-10-11T21:01:29.329Z,13.40
2022-10-11T21:03:58.647Z,13.20
2022-10-11T21:06:26.040Z,13.00
2022-10-11T21:08:54.548Z,13.00
2022-10-11T21:11:21.409Z,13.00
2022-10-11T21:13:53.726Z,13.20
2022-10-11T21:16:20.557Z,13.10
2022-10-11T21:18:50.240Z,13.10
2022-10-11T21:21:18.983Z,13.00
2022-10-11T21:23:46.207Z,13.00
2022-10-11T21:26:13.968Z,13.00
2022-10-11T21:28:41.332Z,13.00
2022-10-11T21:31:09.290Z,13.00
2022-10-11T21:33:39.919Z,13.00
2022-10-11T21:36:07.958Z,13.00
2022-10-11T21:38:36.889Z,12.90
2022-10-11T21:41:04.293Z,12.80
2022-10-11T21:43:31.415Z,12.80
2022-10-11T21:45:58.224Z,12.80
2022-10-11T21:48:26.122Z,12.80
2022-10-11T21:50:54.643Z,12.70
2022-10-11T21:53:21.530Z,12.70
2022-10-11T21:55:49.685Z,12.70
2022-10-11T21:58:16.528Z,12.70
2022-10-11T22:00:44.015Z,12.50
2022-10-11T22:03:14.148Z,12.40
2022-10-11T22:05:43.211Z,12.40
2022-10-11T22:08:10.383Z,12.40
2022-10-11T22:10:37.304Z,12.40
2022-10-11T22:13:05.704Z,12.50
2022-10-11T22:15:33.507Z,12.50
2022-10-11T22:18:00.585Z,12.60
2022-10-11T22:20:27.881Z,12.50
2022-10-11T22:22:54.684Z,12.50
2022-10-11T22:25:21.483Z,12.60
2022-10-11T22:27:48.348Z,12.40
2022-10-11T22:30:17.009Z,12.50
2022-10-11T22:32:43.830Z,12.50
2022-10-11T22:35:10.662Z,12.60
2022-10-11T22:37:38.039Z,12.60
2022-10-11T22:40:05.464Z,12.70
2022-10-11T22:42:32.282Z,12.60
2022-10-11T22:44:59.097Z,12.70
2022-10-11T22:47:27.435Z,12.70
2022-10-11T22:49:54.378Z,12.60
2022-10-11T22:52:21.128Z,12.70
2022-10-11T22:54:47.907Z,12.70
2022-10-11T22:57:14.669Z,12.70
2022-10-11T22:59:41.480Z,12.70
2022-10-11T23:02:08.321Z,12.80
2022-10-11T23:04:36.518Z,12.80
2022-10-11T23:07:05.141Z,12.70
2022-10-11T23:09:32.081Z,12.80
2022-10-11T23:11:59.501Z,12.70
2022-10-11T23:14:26.327Z,12.70
2022-10-11T23:16:53.465Z,12.60
2022-10-11T23:19:20.823Z,12.60
2022-10-11T23:21:49.149Z,12.60
2022-10-11T23:24:15.940Z,12.60
2022-10-11T23:26:42.770Z,12.60
2022-10-11T23:29:09.612Z,12.60
2022-10-11T23:31:36.822Z,12.50
2022-10-11T23:34:03.627Z,12.50
2022-10-11T23:36:30.457Z,12.40
2022-10-11T23:38:58.824Z,12.50
2022-10-11T23:41:26.920Z,12.50
2022-10-11T23:43:53.819Z,12.40
2022-10-11T23:46:20.595Z,12.40
2022-10-11T23:48:47.692Z,12.30
2022-10-11T23:51:14.963Z,12.30
2022-10-11T23:53:41.740Z,12.30
2022-10-11T23:56:11.362Z,12.20
2022-10-11T23:58:38.486Z,12.20
